Time;durP1;ratioP1;P1;durP2;ratioP2;P2;SDS_P1;SDS_P2;PMS_P1;PMS_P2;Temp;Humidity;BMP_temperature;BMP_pressure;BME280_temperature;BME280_humidity;BME280_pressure;Samples;Min_cycle;Max_cycle;Signal;HPM_P1;HPM_P2
2022/03/30 00:02:09;;;;;;;;;;;5.70;99.90;;;;;;5093803;28;19908;-43
2022/03/30 00:04:38;;;;;;;;;;;5.70;99.90;;;;;;5094321;28;19952;-43
2022/03/30 00:07:04;;;;;;;;;;;5.80;99.90;;;;;;5094205;28;20336;-43
2022/03/30 00:09:30;;;;;;;;;;;5.80;99.90;;;;;;5093752;28;19908;-43
2022/03/30 00:11:56;;;;;;;;;;;5.80;99.90;;;;;;5094085;28;19908;-43
2022/03/30 00:14:22;;;;;;;;;;;5.80;99.90;;;;;;5093571;28;20400;-43
2022/03/30 00:16:48;;;;;;;;;;;5.90;99.90;;;;;;5094024;28;19912;-43
2022/03/30 00:19:13;;;;;;;;;;;5.90;99.90;;;;;;5094177;28;19955;-43
2022/03/30 00:21:38;;;;;;;;;;;5.90;99.90;;;;;;5093435;28;19947;-43
2022/03/30 00:24:04;;;;;;;;;;;5.80;99.90;;;;;;5093873;28;20348;-44
2022/03/30 00:26:30;;;;;;;;;;;5.80;99.90;;;;;;5093964;28;19931;-42
2022/03/30 00:28:55;;;;;;;;;;;5.80;99.90;;;;;;5093237;28;20252;-42
2022/03/30 00:31:20;;;;;;;;;;;5.70;99.90;;;;;;5093803;28;19946;-43
2022/03/30 00:33:46;;;;;;;;;;;5.70;99.90;;;;;;5093450;28;19930;-43
2022/03/30 00:36:12;;;;;;;;;;;5.60;99.90;;;;;;5093284;28;19948;-43
2022/03/30 00:38:37;;;;;;;;;;;5.50;99.90;;;;;;5093183;28;19948;-43
2022/03/30 00:41:03;;;;;;;;;;;5.50;99.90;;;;;;5093780;28;20332;-42
2022/03/30 00:43:28;;;;;;;;;;;5.40;99.90;;;;;;5093172;28;19939;-43
2022/03/30 00:45:55;;;;;;;;;;;5.40;99.90;;;;;;5093595;28;19917;-43
2022/03/30 00:48:21;;;;;;;;;;;5.30;99.90;;;;;;5093842;28;19934;-43
2022/03/30 00:50:46;;;;;;;;;;;5.30;99.90;;;;;;5093069;28;19914;-43
2022/03/30 00:53:12;;;;;;;;;;;5.30;99.90;;;;;;5093707;28;19908;-42
2022/03/30 00:55:37;;;;;;;;;;;5.30;99.90;;;;;;5093444;28;19911;-42
2022/03/30 00:58:03;;;;;;;;;;;5.30;99.90;;;;;;5093111;28;19915;-43
2022/03/30 01:00:28;;;;;;;;;;;5.30;99.90;;;;;;5093563;28;19961;-43
2022/03/30 01:02:54;;;;;;;;;;;5.30;99.90;;;;;;5093227;28;20010;-43
2022/03/30 01:05:20;;;;;;;;;;;5.30;99.90;;;;;;5093015;28;19908;-43
2022/03/30 01:07:45;;;;;;;;;;;5.30;99.90;;;;;;5093401;28;20023;-43
2022/03/30 01:10:11;;;;;;;;;;;5.30;99.90;;;;;;5093548;28;20430;-43
2022/03/30 01:12:39;;;;;;;;;;;5.30;99.90;;;;;;5092787;28;19998;-43
2022/03/30 01:15:05;;;;;;;;;;;5.30;99.90;;;;;;5093413;28;19998;-43
2022/03/30 01:17:31;;;;;;;;;;;5.30;99.90;;;;;;5093339;28;19915;-43
2022/03/30 01:19:56;;;;;;;;;;;5.20;99.90;;;;;;5092795;28;19908;-43
2022/03/30 01:22:21;;;;;;;;;;;5.20;99.90;;;;;;5093333;28;19915;-43
2022/03/30 01:24:47;;;;;;;;;;;5.20;99.90;;;;;;5092734;28;19916;-42
2022/03/30 01:27:13;;;;;;;;;;;5.20;99.90;;;;;;5093217;28;19908;-43
2022/03/30 01:32:26;;;;;;;;;;;5.10;99.90;;;;;;5092957;28;19969;-43
2022/03/30 01:34:55;;;;;;;;;;;5.10;99.90;;;;;;5092885;28;19923;-43
2022/03/30 01:37:21;;;;;;;;;;;5.10;99.90;;;;;;5093211;28;19909;-43
2022/03/30 01:39:47;;;;;;;;;;;5.10;99.90;;;;;;5092569;28;19908;-42
2022/03/30 01:42:12;;;;;;;;;;;5.10;99.90;;;;;;5093043;28;20266;-42
2022/03/30 01:44:40;;;;;;;;;;;5.10;99.90;;;;;;5093081;28;20011;-43
2022/03/30 01:47:05;;;;;;;;;;;5.10;99.90;;;;;;5092680;28;19914;-43
2022/03/30 01:49:31;;;;;;;;;;;5.20;99.90;;;;;;5094827;28;19908;-43
2022/03/30 01:51:57;;;;;;;;;;;5.20;99.90;;;;;;5096833;28;19935;-42
2022/03/30 01:54:23;;;;;;;;;;;5.20;99.90;;;;;;5096308;28;19908;-42
2022/03/30 01:56:49;;;;;;;;;;;5.20;99.90;;;;;;5096631;28;19908;-43
2022/03/30 01:59:16;;;;;;;;;;;5.20;99.90;;;;;;5096643;28;20003;-43
2022/03/30 02:01:41;;;;;;;;;;;5.20;99.90;;;;;;5096155;28;20018;-43
2022/03/30 02:04:07;;;;;;;;;;;5.20;99.90;;;;;;5096623;28;20011;-42
2022/03/30 02:06:33;;;;;;;;;;;5.20;99.90;;;;;;5096579;28;19958;-43
2022/03/30 02:08:58;;;;;;;;;;;5.20;99.90;;;;;;5095965;28;19912;-42
2022/03/30 02:11:25;;;;;;;;;;;5.20;99.90;;;;;;5096359;28;19908;-43
2022/03/30 02:13:50;;;;;;;;;;;5.30;99.90;;;;;;5096253;28;19912;-43
2022/03/30 02:16:16;;;;;;;;;;;5.30;99.90;;;;;;5096119;28;19908;-42
2022/03/30 02:18:41;;;;;;;;;;;5.40;99.90;;;;;;5096380;28;19908;-42
2022/03/30 02:21:07;;;;;;;;;;;5.40;99.90;;;;;;5095957;28;19908;-42
2022/03/30 02:23:32;;;;;;;;;;;5.40;99.90;;;;;;5096218;28;19923;-42
2022/03/30 02:25:58;;;;;;;;;;;5.40;99.90;;;;;;5096090;28;19916;-43
2022/03/30 02:28:23;;;;;;;;;;;5.40;99.90;;;;;;5095705;28;19908;-42
2022/03/30 02:30:49;;;;;;;;;;;5.50;99.90;;;;;;5095880;28;20000;-43
2022/03/30 02:33:14;;;;;;;;;;;5.50;99.90;;;;;;5095867;28;19924;-43
2022/03/30 02:35:40;;;;;;;;;;;5.60;99.90;;;;;;5095511;28;20370;-42
2022/03/30 02:38:06;;;;;;;;;;;5.60;99.90;;;;;;5096094;28;20033;-43
2022/03/30 02:40:32;;;;;;;;;;;5.50;99.90;;;;;;5095882;28;19908;-43
2022/03/30 02:42:57;;;;;;;;;;;5.50;99.90;;;;;;5095149;28;19920;-43
2022/03/30 02:45:23;;;;;;;;;;;5.50;99.90;;;;;;5095817;28;20266;-43
2022/03/30 02:50:33;;;;;;;;;;;5.50;99.90;;;;;;5095316;28;19962;-43
2022/03/30 02:52:58;;;;;;;;;;;5.60;99.90;;;;;;5095685;28;19912;-43
2022/03/30 02:55:23;;;;;;;;;;;5.60;99.90;;;;;;5095653;28;19933;-42
2022/03/30 02:57:49;;;;;;;;;;;5.60;99.90;;;;;;5094997;28;19908;-43
2022/03/30 03:00:15;;;;;;;;;;;5.70;99.90;;;;;;5095159;28;19954;-42
2022/03/30 03:02:41;;;;;;;;;;;5.80;99.90;;;;;;5095245;28;19912;-43
2022/03/30 03:05:06;;;;;;;;;;;5.80;99.90;;;;;;5095035;28;19915;-43
2022/03/30 03:07:32;;;;;;;;;;;5.80;99.90;;;;;;5095372;28;19912;-43
2022/03/30 03:09:58;;;;;;;;;;;5.90;99.90;;;;;;5095219;28;20006;-43
2022/03/30 03:12:23;;;;;;;;;;;5.90;99.90;;;;;;5094804;28;20006;-43
2022/03/30 03:14:48;;;;;;;;;;;6.00;99.90;;;;;;5095229;28;19951;-43
2022/03/30 03:17:14;;;;;;;;;;;6.00;99.90;;;;;;5094690;28;19908;-44
2022/03/30 03:19:41;;;;;;;;;;;6.00;99.90;;;;;;5095086;28;19908;-43
2022/03/30 03:22:07;;;;;;;;;;;6.00;99.90;;;;;;5095132;28;20011;-43
2022/03/30 03:24:32;;;;;;;;;;;6.10;99.90;;;;;;5094761;28;20411;-43
2022/03/30 03:26:59;;;;;;;;;;;6.10;99.90;;;;;;5094899;28;20397;-42
2022/03/30 03:29:24;;;;;;;;;;;6.10;99.90;;;;;;5095066;28;20351;-43
2022/03/30 03:31:50;;;;;;;;;;;6.10;99.90;;;;;;5094272;28;19954;-43
2022/03/30 03:34:15;;;;;;;;;;;6.10;99.90;;;;;;5094721;28;19946;-42
2022/03/30 03:36:41;;;;;;;;;;;6.10;99.90;;;;;;5094837;28;20380;-43
2022/03/30 03:39:06;;;;;;;;;;;6.10;99.90;;;;;;5094168;28;19908;-43
2022/03/30 03:41:32;;;;;;;;;;;6.10;99.90;;;;;;5094823;28;19915;-42
2022/03/30 03:43:57;;;;;;;;;;;6.10;99.90;;;;;;5094575;28;19916;-43
2022/03/30 03:46:23;;;;;;;;;;;6.10;99.90;;;;;;5094220;28;20262;-42
2022/03/30 03:48:48;;;;;;;;;;;6.20;99.90;;;;;;5094526;28;19912;-42
2022/03/30 03:51:13;;;;;;;;;;;6.20;99.90;;;;;;5094597;28;19985;-42
2022/03/30 03:53:39;;;;;;;;;;;6.20;99.90;;;;;;5093887;28;19916;-42
2022/03/30 03:56:05;;;;;;;;;;;6.20;99.90;;;;;;5094538;28;20359;-43
2022/03/30 03:58:30;;;;;;;;;;;6.10;99.90;;;;;;5094459;28;20020;-43
2022/03/30 04:00:56;;;;;;;;;;;6.10;99.90;;;;;;5093876;28;19931;-42
2022/03/30 04:03:21;;;;;;;;;;;6.10;99.90;;;;;;5094262;28;19923;-43
2022/03/30 04:05:47;;;;;;;;;;;6.10;99.90;;;;;;5094287;28;19922;-42
2022/03/30 04:08:12;;;;;;;;;;;6.10;99.90;;;;;;5093631;28;19914;-43
2022/03/30 04:10:38;;;;;;;;;;;6.00;99.90;;;;;;5094122;28;19961;-42
2022/03/30 04:13:06;;;;;;;;;;;6.00;99.90;;;;;;5093113;28;19954;-42
2022/03/30 04:15:33;;;;;;;;;;;6.00;99.90;;;;;;5093640;28;19908;-43
2022/03/30 04:17:58;;;;;;;;;;;6.00;99.90;;;;;;5094087;28;19912;-42
2022/03/30 04:20:24;;;;;;;;;;;6.00;99.90;;;;;;5094025;28;20274;-42
2022/03/30 04:22:49;;;;;;;;;;;6.00;99.90;;;;;;5093353;28;19916;-42
2022/03/30 04:25:15;;;;;;;;;;;6.00;99.90;;;;;;5094072;28;19908;-45
2022/03/30 04:27:43;;;;;;;;;;;6.10;99.90;;;;;;5093412;28;19912;-43
2022/03/30 04:30:09;;;;;;;;;;;6.10;99.90;;;;;;5093867;28;20367;-44
2022/03/30 04:32:35;;;;;;;;;;;6.10;99.90;;;;;;5093872;28;19946;-43
2022/03/30 04:35:00;;;;;;;;;;;6.10;99.90;;;;;;5092932;28;19980;-43
2022/03/30 04:37:26;;;;;;;;;;;6.10;99.90;;;;;;5093788;28;19912;-42
2022/03/30 04:39:51;;;;;;;;;;;6.10;99.90;;;;;;5093776;28;20240;-43
2022/03/30 04:42:20;;;;;;;;;;;6.10;99.90;;;;;;5092987;28;19917;-42
2022/03/30 04:44:46;;;;;;;;;;;6.10;99.90;;;;;;5093621;28;19912;-44
2022/03/30 04:47:11;;;;;;;;;;;6.10;99.90;;;;;;5093774;28;19961;-42
2022/03/30 04:49:36;;;;;;;;;;;6.10;99.90;;;;;;5093178;28;19996;-44
2022/03/30 04:52:02;;;;;;;;;;;6.10;99.90;;;;;;5093594;28;19908;-42
2022/03/30 04:54:28;;;;;;;;;;;6.10;99.90;;;;;;5093662;28;19912;-42
2022/03/30 04:56:54;;;;;;;;;;;6.10;99.90;;;;;;5092964;28;19908;-42
2022/03/30 04:59:19;;;;;;;;;;;6.10;99.90;;;;;;5093642;28;20006;-44
2022/03/30 05:01:44;;;;;;;;;;;6.20;99.90;;;;;;5093510;28;19908;-43
2022/03/30 05:04:10;;;;;;;;;;;6.10;99.90;;;;;;5092904;28;19917;-43
2022/03/30 05:06:35;;;;;;;;;;;6.20;99.90;;;;;;5093379;28;19908;-42
2022/03/30 05:09:01;;;;;;;;;;;6.30;99.90;;;;;;5093266;28;20008;-42
2022/03/30 05:11:26;;;;;;;;;;;6.30;99.90;;;;;;5092914;28;19977;-42
2022/03/30 05:13:52;;;;;;;;;;;6.30;99.90;;;;;;5093441;28;19914;-42
2022/03/30 05:16:17;;;;;;;;;;;6.40;99.90;;;;;;5093516;28;19931;-45
2022/03/30 05:18:42;;;;;;;;;;;6.40;99.90;;;;;;5092795;28;19912;-42
2022/03/30 05:21:08;;;;;;;;;;;6.50;99.90;;;;;;5093375;28;19912;-43
2022/03/30 05:23:36;;;;;;;;;;;6.50;99.90;;;;;;5093615;28;20014;-43
2022/03/30 05:26:02;;;;;;;;;;;6.50;99.90;;;;;;5096879;28;19908;-42
2022/03/30 05:28:28;;;;;;;;;;;6.50;99.90;;;;;;5097303;28;20263;-43
2022/03/30 05:30:53;;;;;;;;;;;6.50;99.90;;;;;;5096660;28;19908;-42
2022/03/30 05:33:18;;;;;;;;;;;6.50;99.90;;;;;;5096995;28;19908;-43
2022/03/30 05:35:44;;;;;;;;;;;6.50;99.90;;;;;;5097081;28;20347;-43
2022/03/30 05:38:09;;;;;;;;;;;6.60;99.90;;;;;;5096639;28;20438;-44
2022/03/30 05:40:35;;;;;;;;;;;6.60;99.90;;;;;;5097082;28;19943;-44
2022/03/30 05:43:00;;;;;;;;;;;6.60;99.90;;;;;;5096827;28;19923;-43
2022/03/30 05:45:26;;;;;;;;;;;6.60;99.90;;;;;;5096419;28;19999;-43
2022/03/30 05:47:51;;;;;;;;;;;6.60;99.90;;;;;;5096887;28;19943;-42
2022/03/30 05:50:16;;;;;;;;;;;6.60;99.90;;;;;;5096900;28;20025;-43
2022/03/30 05:52:42;;;;;;;;;;;6.60;99.90;;;;;;5096271;28;19914;-43
2022/03/30 05:55:09;;;;;;;;;;;6.70;99.90;;;;;;5096852;28;19931;-42
2022/03/30 05:57:35;;;;;;;;;;;6.70;99.90;;;;;;5096758;28;19915;-43
2022/03/30 06:00:00;;;;;;;;;;;6.70;99.90;;;;;;5096116;28;19912;-43
2022/03/30 06:02:26;;;;;;;;;;;6.60;99.90;;;;;;5096592;28;20015;-44
2022/03/30 06:04:53;;;;;;;;;;;6.60;99.90;;;;;;5096551;28;19919;-42
2022/03/30 06:07:19;;;;;;;;;;;6.60;99.90;;;;;;5096057;28;19962;-42
2022/03/30 06:09:44;;;;;;;;;;;6.60;99.90;;;;;;5096427;28;19908;-43
2022/03/30 06:12:11;;;;;;;;;;;6.50;99.90;;;;;;5096591;28;19988;-43
2022/03/30 06:14:36;;;;;;;;;;;6.50;99.90;;;;;;5095941;28;19908;-44
2022/03/30 06:17:03;;;;;;;;;;;6.50;99.90;;;;;;5096421;28;20317;-43
2022/03/30 06:19:30;;;;;;;;;;;6.50;99.90;;;;;;5096339;28;19912;-42
2022/03/30 06:21:55;;;;;;;;;;;6.50;99.90;;;;;;5095741;28;19915;-43
2022/03/30 06:24:21;;;;;;;;;;;6.50;99.90;;;;;;5096377;28;19916;-42
2022/03/30 06:26:47;;;;;;;;;;;6.50;99.90;;;;;;5096234;28;19908;-43
2022/03/30 06:29:13;;;;;;;;;;;6.50;99.90;;;;;;5095643;28;20366;-43
2022/03/30 06:31:38;;;;;;;;;;;6.50;99.90;;;;;;5095893;28;19913;-43
2022/03/30 06:34:04;;;;;;;;;;;6.50;99.90;;;;;;5095670;28;19920;-44
2022/03/30 06:36:33;;;;;;;;;;;6.50;99.90;;;;;;5094040;28;21401;-43
2022/03/30 06:38:59;;;;;;;;;;;6.50;99.90;;;;;;5095844;28;19916;-43
2022/03/30 06:41:25;;;;;;;;;;;6.60;99.90;;;;;;5095465;28;19908;-43
2022/03/30 06:43:51;;;;;;;;;;;6.60;99.90;;;;;;5095723;28;19916;-43
2022/03/30 06:46:17;;;;;;;;;;;6.70;99.90;;;;;;5095896;28;19914;-43
2022/03/30 06:48:42;;;;;;;;;;;6.70;99.90;;;;;;5095174;28;19999;-45
2022/03/30 06:51:08;;;;;;;;;;;6.70;99.90;;;;;;5095800;28;19947;-44
2022/03/30 06:53:34;;;;;;;;;;;6.80;99.90;;;;;;5095804;28;19908;-42
2022/03/30 06:55:59;;;;;;;;;;;6.90;99.90;;;;;;5095058;28;20361;-43
2022/03/30 06:58:25;;;;;;;;;;;6.90;99.90;;;;;;5095524;28;20307;-43
2022/03/30 07:00:51;;;;;;;;;;;6.90;99.90;;;;;;5095488;28;19951;-43
2022/03/30 07:03:16;;;;;;;;;;;7.00;99.90;;;;;;5094894;28;19916;-42
2022/03/30 07:05:41;;;;;;;;;;;7.00;99.90;;;;;;5095402;28;20058;-43
2022/03/30 07:10:51;;;;;;;;;;;7.00;99.90;;;;;;5094903;28;19915;-43
2022/03/30 07:13:16;;;;;;;;;;;7.00;99.90;;;;;;5095279;28;19908;-44
2022/03/30 07:15:42;;;;;;;;;;;7.10;99.90;;;;;;5095247;28;19920;-43
2022/03/30 07:18:08;;;;;;;;;;;7.10;99.90;;;;;;5094844;28;19908;-42
2022/03/30 07:20:34;;;;;;;;;;;7.20;99.90;;;;;;5095300;28;19908;-42
2022/03/30 07:22:59;;;;;;;;;;;7.20;99.90;;;;;;5095005;28;19926;-43
2022/03/30 07:25:25;;;;;;;;;;;7.30;99.90;;;;;;5094630;28;20003;-44
2022/03/30 07:27:52;;;;;;;;;;;7.40;99.90;;;;;;5095056;28;19954;-42
2022/03/30 07:30:19;;;;;;;;;;;7.50;99.90;;;;;;5094933;28;19912;-42
2022/03/30 07:32:46;;;;;;;;;;;7.60;99.90;;;;;;5094381;28;19908;-43
2022/03/30 07:35:13;;;;;;;;;;;7.70;99.90;;;;;;5094625;28;19948;-43
2022/03/30 07:37:39;;;;;;;;;;;7.70;99.90;;;;;;5094322;28;19922;-42
2022/03/30 07:40:06;;;;;;;;;;;7.80;99.90;;;;;;5094820;28;20263;-44
2022/03/30 07:42:31;;;;;;;;;;;7.80;99.90;;;;;;5094482;28;19916;-43
2022/03/30 07:44:57;;;;;;;;;;;7.80;99.90;;;;;;5094058;28;19982;-43
2022/03/30 07:47:24;;;;;;;;;;;7.90;99.90;;;;;;5094479;28;19915;-42
2022/03/30 07:49:49;;;;;;;;;;;7.90;99.90;;;;;;5094565;28;20355;-43
2022/03/30 07:52:15;;;;;;;;;;;8.00;99.90;;;;;;5094195;28;19914;-43
2022/03/30 07:54:41;;;;;;;;;;;8.10;99.90;;;;;;5094550;28;19908;-43
2022/03/30 07:57:07;;;;;;;;;;;8.10;99.90;;;;;;5094404;28;19955;-42
2022/03/30 07:59:32;;;;;;;;;;;8.00;99.90;;;;;;5093853;28;19908;-43
2022/03/30 08:01:58;;;;;;;;;;;8.00;99.90;;;;;;5094328;28;19912;-42
2022/03/30 08:04:24;;;;;;;;;;;8.00;99.90;;;;;;5094335;28;19916;-43
2022/03/30 08:06:50;;;;;;;;;;;8.10;99.90;;;;;;5093744;28;19908;-43
2022/03/30 08:09:15;;;;;;;;;;;8.10;99.90;;;;;;5094240;28;20008;-43
2022/03/30 08:11:41;;;;;;;;;;;8.20;99.90;;;;;;5094103;28;19915;-43
2022/03/30 08:14:06;;;;;;;;;;;8.20;99.90;;;;;;5093618;28;19995;-42
2022/03/30 08:16:34;;;;;;;;;;;8.20;99.90;;;;;;5094231;28;20357;-44
2022/03/30 08:19:00;;;;;;;;;;;8.20;99.90;;;;;;5094095;28;19953;-42
2022/03/30 08:24:10;;;;;;;;;;;8.20;99.90;;;;;;5094156;28;19923;-43
2022/03/30 08:26:37;;;;;;;;;;;8.20;99.90;;;;;;5093976;28;19912;-43
2022/03/30 08:29:03;;;;;;;;;;;8.20;99.90;;;;;;5093520;28;19919;-43
2022/03/30 08:31:28;;;;;;;;;;;8.30;99.90;;;;;;5093922;28;19908;-43
2022/03/30 08:33:54;;;;;;;;;;;8.40;99.90;;;;;;5092977;28;19920;-42
2022/03/30 08:36:20;;;;;;;;;;;8.50;99.90;;;;;;5094042;28;19913;-43
2022/03/30 08:38:45;;;;;;;;;;;8.60;99.90;;;;;;5093745;28;19908;-43
2022/03/30 08:41:11;;;;;;;;;;;8.60;99.90;;;;;;5093157;28;20274;-42
2022/03/30 08:43:37;;;;;;;;;;;8.70;99.90;;;;;;5093604;28;19954;-42
2022/03/30 08:46:03;;;;;;;;;;;8.80;99.90;;;;;;5093684;28;20317;-43
2022/03/30 08:48:29;;;;;;;;;;;8.90;99.90;;;;;;5093513;28;19934;-42
2022/03/30 08:50:56;;;;;;;;;;;9.00;99.90;;;;;;5093534;28;20417;-43
2022/03/30 08:53:21;;;;;;;;;;;9.00;99.90;;;;;;5093738;28;19963;-43
2022/03/30 08:55:47;;;;;;;;;;;9.00;99.90;;;;;;5093015;28;19948;-42
2022/03/30 08:58:12;;;;;;;;;;;9.10;99.90;;;;;;5093175;28;19931;-44
2022/03/30 09:00:38;;;;;;;;;;;9.10;99.90;;;;;;5093435;28;19908;-42
2022/03/30 09:03:04;;;;;;;;;;;9.20;99.90;;;;;;5092795;28;20416;-44
2022/03/30 09:05:30;;;;;;;;;;;9.30;99.90;;;;;;5093376;28;20042;-43
2022/03/30 09:08:15;;;;;;;;;;;9.30;99.90;;;;;;5093402;28;20037;-43
2022/03/30 09:10:42;;;;;;;;;;;9.30;99.90;;;;;;5092924;28;19962;-43
2022/03/30 09:13:09;;;;;;;;;;;9.30;99.90;;;;;;5093446;28;19908;-43
2022/03/30 09:15:35;;;;;;;;;;;9.30;99.90;;;;;;5093529;28;20045;-42
2022/03/30 09:18:02;;;;;;;;;;;9.30;99.90;;;;;;5092884;28;19916;-43
2022/03/30 09:20:27;;;;;;;;;;;9.40;99.90;;;;;;5093388;28;19956;-43
2022/03/30 09:22:57;;;;;;;;;;;9.40;99.90;;;;;;5093102;28;19976;-44
2022/03/30 09:25:23;;;;;;;;;;;9.50;99.90;;;;;;5093412;28;19931;-43
2022/03/30 09:27:51;;;;;;;;;;;9.40;99.90;;;;;;5093334;28;19974;-43
2022/03/30 09:30:17;;;;;;;;;;;9.60;99.90;;;;;;5092760;28;19916;-43
2022/03/30 09:32:44;;;;;;;;;;;9.60;99.90;;;;;;5093207;28;19908;-43
2022/03/30 09:35:19;;;;;;;;;;;9.50;99.90;;;;;;5092983;28;19927;-45
2022/03/30 09:37:44;;;;;;;;;;;9.60;99.90;;;;;;5092722;28;19908;-42
2022/03/30 09:40:10;;;;;;;;;;;9.50;99.90;;;;;;5093263;28;19908;-43
2022/03/30 09:42:36;;;;;;;;;;;9.50;99.90;;;;;;5093129;28;19915;-42
2022/03/30 09:45:02;;;;;;;;;;;9.50;99.90;;;;;;5092582;28;19920;-44
2022/03/30 09:47:36;;;;;;;;;;;9.30;99.90;;;;;;5093137;28;20007;-43
2022/03/30 09:50:06;;;;;;;;;;;9.20;99.90;;;;;;5093046;28;19919;-42
2022/03/30 09:52:33;;;;;;;;;;;9.20;99.90;;;;;;5092618;28;20573;-43
2022/03/30 09:55:00;;;;;;;;;;;9.00;99.90;;;;;;5092978;28;20394;-43
2022/03/30 09:57:27;;;;;;;;;;;9.00;99.90;;;;;;5093111;28;19908;-43
2022/03/30 09:59:55;;;;;;;;;;;9.00;99.90;;;;;;5092414;28;20410;-44
2022/03/30 10:02:21;;;;;;;;;;;8.90;99.90;;;;;;5092922;28;19908;-43
2022/03/30 10:04:47;;;;;;;;;;;9.00;99.90;;;;;;5092900;28;19923;-42
2022/03/30 10:07:13;;;;;;;;;;;9.00;99.90;;;;;;5092433;28;19908;-43
2022/03/30 10:09:39;;;;;;;;;;;9.00;99.90;;;;;;5092985;28;19961;-43
2022/03/30 10:12:05;;;;;;;;;;;8.90;99.90;;;;;;5095366;28;19991;-42
2022/03/30 10:14:32;;;;;;;;;;;8.90;99.90;;;;;;5096006;28;19908;-42
2022/03/30 10:16:57;;;;;;;;;;;8.80;99.90;;;;;;5096417;28;19908;-43
2022/03/30 10:19:23;;;;;;;;;;;8.70;99.90;;;;;;5095910;28;20369;-43
2022/03/30 10:22:00;;;;;;;;;;;8.70;99.90;;;;;;5096418;28;19912;-42
2022/03/30 10:24:29;;;;;;;;;;;8.80;99.90;;;;;;5096341;28;19916;-43
2022/03/30 10:27:06;;;;;;;;;;;9.00;99.90;;;;;;5095709;28;19916;-42
2022/03/30 10:29:32;;;;;;;;;;;9.20;99.90;;;;;;5096067;28;19912;-43
2022/03/30 10:32:10;;;;;;;;;;;9.40;99.90;;;;;;5096110;28;19915;-43
2022/03/30 10:34:40;;;;;;;;;;;9.70;99.90;;;;;;5095382;28;19924;-43
2022/03/30 10:37:09;;;;;;;;;;;9.90;99.90;;;;;;5096059;28;20007;-43
2022/03/30 10:39:55;;;;;;;;;;;10.10;99.90;;;;;;5095957;28;20259;-43
2022/03/30 10:42:20;;;;;;;;;;;10.40;99.90;;;;;;5081055;28;19908;-45
2022/03/30 10:44:47;;;;;;;;;;;10.50;99.90;;;;;;5095827;28;19925;-43
2022/03/30 10:47:17;;;;;;;;;;;10.60;99.90;;;;;;5095890;28;20313;-43
2022/03/30 10:49:45;;;;;;;;;;;10.60;99.90;;;;;;5095309;28;19912;-43
2022/03/30 10:52:31;;;;;;;;;;;10.60;99.10;;;;;;5095769;28;19927;-43
2022/03/30 10:55:12;;;;;;;;;;;10.50;99.90;;;;;;5095111;28;19915;-43
2022/03/30 10:57:50;;;;;;;;;;;10.40;98.40;;;;;;5095676;28;19969;-42
2022/03/30 11:00:17;;;;;;;;;;;10.20;97.20;;;;;;5095610;28;19991;-43
2022/03/30 11:02:42;;;;;;;;;;;10.20;99.90;;;;;;5094788;28;19916;-43
2022/03/30 11:05:11;;;;;;;;;;;10.20;99.70;;;;;;5095468;28;19908;-42
2022/03/30 11:07:37;;;;;;;;;;;10.20;99.90;;;;;;5095425;28;19962;-43
2022/03/30 11:10:26;;;;;;;;;;;10.40;99.90;;;;;;5094850;28;19969;-42
2022/03/30 11:12:59;;;;;;;;;;;10.40;99.90;;;;;;5084824;28;19908;-43
2022/03/30 11:15:25;;;;;;;;;;;10.50;98.00;;;;;;5095269;28;20017;-43
2022/03/30 11:17:51;;;;;;;;;;;10.50;98.00;;;;;;5094798;28;19915;-43
2022/03/30 11:20:16;;;;;;;;;;;10.60;97.60;;;;;;5095282;28;19956;-43
2022/03/30 11:22:44;;;;;;;;;;;10.60;98.20;;;;;;5094074;28;20003;-42
2022/03/30 11:25:10;;;;;;;;;;;10.70;95.30;;;;;;5095239;28;19954;-43
2022/03/30 11:27:36;;;;;;;;;;;10.70;94.40;;;;;;5094902;28;20343;-43
2022/03/30 11:30:12;;;;;;;;;;;10.60;96.50;;;;;;5094441;28;19947;-42
2022/03/30 11:32:39;;;;;;;;;;;10.70;97.60;;;;;;5094573;28;19908;-43
2022/03/30 11:35:06;;;;;;;;;;;10.70;96.60;;;;;;5094674;28;20008;-42
2022/03/30 11:37:32;;;;;;;;;;;10.60;97.40;;;;;;5094248;28;19908;-43
2022/03/30 11:40:02;;;;;;;;;;;10.50;88.20;;;;;;5093953;28;20442;-42
2022/03/30 11:42:28;;;;;;;;;;;10.50;96.40;;;;;;5094023;28;19998;-43
2022/03/30 11:47:38;;;;;;;;;;;10.50;90.30;;;;;;5095010;28;19961;-43
2022/03/30 11:50:04;;;;;;;;;;;10.60;98.30;;;;;;5094038;28;20420;-43
2022/03/30 11:52:30;;;;;;;;;;;10.70;97.00;;;;;;5094024;28;19916;-44
2022/03/30 11:54:55;;;;;;;;;;;10.60;92.00;;;;;;5094224;28;20382;-44
2022/03/30 11:57:21;;;;;;;;;;;10.70;91.50;;;;;;5094174;28;20282;-43
2022/03/30 11:59:56;;;;;;;;;;;10.70;93.60;;;;;;5093588;28;19912;-43
2022/03/30 12:02:24;;;;;;;;;;;10.80;91.30;;;;;;5094455;28;19947;-43
2022/03/30 12:04:50;;;;;;;;;;;10.70;85.70;;;;;;5092826;28;20015;-42
2022/03/30 12:07:16;;;;;;;;;;;10.80;91.20;;;;;;5094142;28;20255;-43
2022/03/30 12:09:45;;;;;;;;;;;10.70;78.90;;;;;;5094179;28;19910;-42
2022/03/30 12:12:11;;;;;;;;;;;10.80;80.50;;;;;;5093773;28;19912;-43
2022/03/30 12:14:36;;;;;;;;;;;10.90;91.60;;;;;;5093735;28;19993;-42
2022/03/30 12:17:04;;;;;;;;;;;11.00;87.30;;;;;;5093987;28;19915;-42
2022/03/30 12:19:29;;;;;;;;;;;11.00;92.50;;;;;;5093674;28;19916;-45
2022/03/30 12:22:03;;;;;;;;;;;11.00;85.10;;;;;;5093946;28;19968;-42
2022/03/30 12:24:32;;;;;;;;;;;10.90;83.30;;;;;;5093805;28;20011;-43
2022/03/30 12:26:59;;;;;;;;;;;10.80;88.60;;;;;;5093488;28;19908;-44
2022/03/30 12:29:29;;;;;;;;;;;10.80;84.30;;;;;;5093452;28;19912;-42
2022/03/30 12:31:57;;;;;;;;;;;10.70;84.40;;;;;;5093440;28;20015;-43
2022/03/30 12:34:23;;;;;;;;;;;10.50;74.80;;;;;;5102752;28;20023;-43
2022/03/30 12:36:50;;;;;;;;;;;10.50;86.00;;;;;;5093846;28;20002;-42
2022/03/30 12:39:16;;;;;;;;;;;10.50;92.20;;;;;;5114152;28;19915;-44
2022/03/30 12:41:42;;;;;;;;;;;10.40;90.60;;;;;;5113307;28;19912;-42
2022/03/30 12:44:08;;;;;;;;;;;10.40;89.20;;;;;;5113688;28;20379;-44
2022/03/30 12:46:33;;;;;;;;;;;10.40;82.00;;;;;;5079786;28;19965;-43
2022/03/30 12:49:05;;;;;;;;;;;10.50;90.30;;;;;;5101797;28;20006;-42
2022/03/30 12:51:33;;;;;;;;;;;10.50;86.80;;;;;;5106843;28;19912;-43
2022/03/30 12:53:59;;;;;;;;;;;10.60;91.80;;;;;;5093503;28;19912;-42
2022/03/30 12:56:25;;;;;;;;;;;10.80;86.20;;;;;;5113871;28;19931;-42
2022/03/30 12:58:59;;;;;;;;;;;10.90;92.00;;;;;;5105957;28;19908;-43
2022/03/30 13:01:29;;;;;;;;;;;11.00;78.10;;;;;;5093072;28;19939;-43
2022/03/30 13:03:55;;;;;;;;;;;11.00;83.40;;;;;;5093254;28;20351;-43
2022/03/30 13:06:21;;;;;;;;;;;10.90;83.80;;;;;;5093467;28;19916;-43
2022/03/30 13:09:11;;;;;;;;;;;10.90;86.20;;;;;;5092950;28;19909;-42
2022/03/30 13:11:41;;;;;;;;;;;10.90;92.10;;;;;;5093343;28;19952;-42
2022/03/30 13:14:10;;;;;;;;;;;10.80;84.10;;;;;;5093191;28;19908;-43
2022/03/30 13:16:36;;;;;;;;;;;10.70;76.70;;;;;;5092797;28;19908;-43
2022/03/30 13:19:02;;;;;;;;;;;10.70;84.30;;;;;;5093295;28;19915;-42
2022/03/30 13:21:40;;;;;;;;;;;10.60;90.00;;;;;;5090025;28;19908;-43
2022/03/30 13:24:25;;;;;;;;;;;10.60;90.70;;;;;;5089680;28;19916;-42
2022/03/30 13:26:52;;;;;;;;;;;10.50;90.20;;;;;;5092030;28;19908;-42
2022/03/30 13:29:18;;;;;;;;;;;10.60;90.50;;;;;;5091888;28;19951;-42
2022/03/30 13:31:46;;;;;;;;;;;10.70;91.80;;;;;;5091739;28;20013;-44
2022/03/30 13:34:13;;;;;;;;;;;10.70;91.50;;;;;;5088774;28;19927;-43
2022/03/30 13:36:38;;;;;;;;;;;10.80;92.20;;;;;;5091291;28;20263;-43
2022/03/30 13:39:05;;;;;;;;;;;10.90;90.00;;;;;;5087281;28;19920;-42
2022/03/30 13:41:30;;;;;;;;;;;10.90;89.40;;;;;;5071006;28;20567;-42
2022/03/30 13:43:56;;;;;;;;;;;11.00;90.30;;;;;;5070569;28;19917;-43
2022/03/30 13:46:22;;;;;;;;;;;11.20;90.80;;;;;;5080898;28;20359;-43
2022/03/30 13:48:48;;;;;;;;;;;11.40;78.20;;;;;;5096392;28;19999;-43
2022/03/30 13:51:13;;;;;;;;;;;11.70;72.50;;;;;;5095458;28;19912;-42
2022/03/30 13:53:39;;;;;;;;;;;11.70;66.40;;;;;;5095889;28;19940;-42
2022/03/30 13:56:05;;;;;;;;;;;11.80;72.60;;;;;;5095871;28;19912;-42
2022/03/30 13:58:31;;;;;;;;;;;12.10;68.00;;;;;;5094923;28;19912;-44
2022/03/30 14:00:57;;;;;;;;;;;12.20;65.00;;;;;;5095931;28;19908;-43
2022/03/30 14:03:23;;;;;;;;;;;12.20;62.60;;;;;;5095764;28;19977;-44
2022/03/30 14:05:49;;;;;;;;;;;12.30;73.60;;;;;;5095095;28;19999;-43
2022/03/30 14:08:15;;;;;;;;;;;12.20;77.40;;;;;;5094075;28;20006;-42
2022/03/30 14:10:40;;;;;;;;;;;12.00;68.20;;;;;;5094443;28;19951;-44
2022/03/30 14:13:06;;;;;;;;;;;11.70;71.80;;;;;;5094375;28;20026;-43
2022/03/30 14:15:32;;;;;;;;;;;11.50;76.60;;;;;;5092536;28;19912;-42
2022/03/30 14:17:59;;;;;;;;;;;11.30;89.60;;;;;;5095319;28;20358;-42
2022/03/30 14:20:24;;;;;;;;;;;11.10;90.10;;;;;;5093383;28;19911;-45
2022/03/30 14:22:50;;;;;;;;;;;11.00;92.50;;;;;;5093914;28;20693;-43
2022/03/30 14:25:16;;;;;;;;;;;10.90;92.20;;;;;;5094286;28;19908;-42
2022/03/30 14:27:42;;;;;;;;;;;11.00;93.00;;;;;;5094616;28;20406;-42
2022/03/30 14:30:09;;;;;;;;;;;11.00;93.70;;;;;;5094726;28;19916;-42
2022/03/30 14:32:35;;;;;;;;;;;10.90;90.00;;;;;;5094197;28;19916;-43
2022/03/30 14:35:00;;;;;;;;;;;10.90;88.10;;;;;;5094626;28;19931;-43
2022/03/30 14:37:27;;;;;;;;;;;10.90;92.60;;;;;;5095063;28;19908;-44